Time;durP1;ratioP1;P1;durP2;ratioP2;P2;SDS_P1;SDS_P2;PMS_P1;PMS_P2;Temp;Humidity;BMP_temperature;BMP_pressure;BME280_temperature;BME280_humidity;BME280_pressure;Samples;Min_cycle;Max_cycle;Signal;HPM_P1;HPM_P2
2022/08/13 00:04:33;;;;;;;7.30;6.60;;;;;;;19.19;100.00;99210.09;1729150;81;21190;-75
2022/08/13 00:07:05;;;;;;;7.55;6.45;;;;;;;19.17;100.00;99212.04;1731748;81;20949;-74
2022/08/13 00:09:32;;;;;;;7.10;6.40;;;;;;;19.15;100.00;99209.52;1739147;81;20999;-74
2022/08/13 00:14:46;;;;;;;9.00;6.50;;;;;;;19.10;100.00;99207.73;1724593;81;21591;-74
2022/08/13 00:17:13;;;;;;;8.10;7.00;;;;;;;19.08;100.00;99204.86;1738914;81;21512;-74
2022/08/13 00:19:44;;;;;;;8.88;6.75;;;;;;;19.05;100.00;99198.52;1735493;81;21089;-74
2022/08/13 00:22:12;;;;;;;9.20;6.05;;;;;;;19.03;100.00;99198.63;1726938;82;21078;-74
2022/08/13 00:24:39;;;;;;;7.10;6.40;;;;;;;19.02;100.00;99194.32;1714699;82;20975;-74
2022/08/13 00:27:06;;;;;;;7.83;6.75;;;;;;;19.01;100.00;99191.80;1738973;81;21067;-75
2022/08/13 00:29:33;;;;;;;7.53;6.83;;;;;;;19.00;100.00;99183.54;1723312;81;21163;-74
2022/08/13 00:31:59;;;;;;;8.73;7.53;;;;;;;18.99;100.00;99187.13;1728389;82;20992;-74
2022/08/13 00:34:27;;;;;;;8.35;7.08;;;;;;;18.97;100.00;99178.55;1730654;81;21087;-74
2022/08/13 00:36:54;;;;;;;7.25;6.55;;;;;;;18.97;100.00;99174.59;1689312;82;21007;-74
2022/08/13 00:39:21;;;;;;;11.08;6.58;;;;;;;18.97;100.00;99174.59;1727299;82;21009;-74
2022/08/13 00:41:47;;;;;;;7.40;6.70;;;;;;;18.95;100.00;99174.71;1723860;82;21468;-74
2022/08/13 00:44:16;;;;;;;7.15;6.42;;;;;;;18.94;100.00;99159.86;1725112;81;21003;-74
2022/08/13 00:46:43;;;;;;;7.42;6.37;;;;;;;18.95;100.00;99167.28;1726452;82;21063;-74
2022/08/13 00:49:10;;;;;;;7.58;6.80;;;;;;;18.94;100.00;99167.77;1746803;82;21471;-74
2022/08/13 00:51:38;;;;;;;7.65;6.87;;;;;;;18.98;100.00;99176.27;1719664;82;21522;-74
2022/08/13 00:54:06;;;;;;;8.75;6.25;;;;;;;19.00;100.00;99169.04;1733053;81;21111;-74
2022/08/13 00:56:34;;;;;;;6.62;5.95;;;;;;;19.03;100.00;99164.36;1735864;81;21082;-74
2022/08/13 00:59:09;;;;;;;7.45;6.70;;;;;;;19.03;100.00;99168.32;1742387;81;21008;-75
2022/08/13 01:01:32;;;;;;;9.93;6.83;;;;;;;19.04;100.00;99176.59;1734098;81;21043;-75
2022/08/13 01:03:58;;;;;;;7.28;6.58;;;;;;;19.03;100.00;99172.75;1735772;82;20964;-75
2022/08/13 01:06:25;;;;;;;6.92;6.28;;;;;;;18.96;100.00;99177.70;1715441;82;21144;-75
2022/08/13 01:08:53;;;;;;;8.45;6.65;;;;;;;18.90;100.00;99180.34;1723915;81;21098;-75
2022/08/13 01:11:19;;;;;;;8.05;5.97;;;;;;;18.86;100.00;99172.80;1725641;81;21010;-75
2022/08/13 01:13:45;;;;;;;6.95;6.10;;;;;;;18.82;100.00;99179.27;1724315;82;21043;-75
2022/08/13 01:16:13;;;;;;;5.90;5.30;;;;;;;18.79;100.00;99171.13;1710842;81;21102;-75
2022/08/13 01:18:50;;;;;;;8.88;6.22;;;;;;;18.77;100.00;99170.91;1740772;81;21128;-75
2022/08/13 01:21:22;;;;;;;6.65;5.92;;;;;;;18.74;100.00;99185.65;1711602;82;20984;-75
2022/08/13 01:23:52;;;;;;;6.70;6.08;;;;;;;18.72;100.00;99166.48;1717359;81;21669;-75
2022/08/13 01:26:20;;;;;;;7.65;5.45;;;;;;;18.69;100.00;99159.66;1727024;82;20956;-75
2022/08/13 01:28:48;;;;;;;10.85;5.70;;;;;;;18.66;100.00;99165.17;1725279;81;21081;-75
2022/08/13 01:31:15;;;;;;;7.83;5.40;;;;;;;18.63;100.00;99153.55;1735593;81;21131;-75
2022/08/13 01:33:47;;;;;;;6.58;5.05;;;;;;;18.59;100.00;99155.59;1709648;81;21006;-75
2022/08/13 01:36:11;;;;;;;5.80;5.28;;;;;;;18.56;100.00;99136.07;1716505;82;21057;-75
2022/08/13 01:38:40;;;;;;;6.15;5.65;;;;;;;18.55;100.00;99140.14;1703303;82;20967;-75
2022/08/13 01:41:09;;;;;;;8.15;5.83;;;;;;;18.55;100.00;99131.77;1690881;82;21517;-75
2022/08/13 01:43:38;;;;;;;6.12;5.53;;;;;;;18.53;100.00;99127.09;1708199;82;21273;-75
2022/08/13 01:46:06;;;;;;;6.47;5.87;;;;;;;18.52;100.00;99128.05;1714717;81;21059;-75
2022/08/13 01:51:24;;;;;;;6.17;5.40;;;;;;;18.47;100.00;99128.05;1720189;81;20958;-75
2022/08/13 01:53:59;;;;;;;6.22;5.72;;;;;;;18.43;100.00;99129.24;1724684;82;21027;-75
2022/08/13 01:56:28;;;;;;;9.95;6.45;;;;;;;18.42;100.00;99128.88;1717825;81;21309;-75
2022/08/13 01:58:57;;;;;;;6.25;5.75;;;;;;;18.41;100.00;99128.52;1728746;82;21007;-75
2022/08/13 02:01:25;;;;;;;8.15;5.55;;;;;;;18.41;100.00;99119.31;1739985;81;21052;-75
2022/08/13 02:03:56;;;;;;;6.45;5.80;;;;;;;18.41;100.00;99123.26;1734695;81;21524;-75
2022/08/13 02:06:30;;;;;;;7.15;5.97;;;;;;;18.43;100.00;99119.55;1727304;82;21054;-75
2022/08/13 02:09:00;;;;;;;8.00;5.40;;;;;;;18.45;100.00;99114.16;1728259;81;21245;-75
2022/08/13 02:11:29;;;;;;;7.92;5.72;;;;;;;18.46;100.00;99115.36;1692575;82;20959;-75
2022/08/13 02:13:56;;;;;;;6.25;5.55;;;;;;;18.48;100.00;99120.51;1684264;83;20981;-75
2022/08/13 02:16:24;;;;;;;5.72;5.20;;;;;;;18.49;100.00;99121.70;1733569;81;21004;-75
2022/08/13 02:18:53;;;;;;;8.48;6.28;;;;;;;18.51;100.00;99122.91;1726950;82;21078;-75
2022/08/13 02:21:22;;;;;;;6.45;5.85;;;;;;;18.51;100.00;99122.42;1736599;81;21853;-75
2022/08/13 02:23:56;;;;;;;7.62;5.90;;;;;;;18.52;100.00;99122.78;1727533;81;21216;-75
2022/08/13 02:26:23;;;;;;;9.23;5.75;;;;;;;18.55;100.00;99119.07;1722002;81;21145;-76
2022/08/13 02:28:54;;;;;;;7.95;5.83;;;;;;;18.54;100.00;99105.06;1715386;81;21112;-75
2022/08/13 02:31:21;;;;;;;8.03;5.47;;;;;;;18.57;100.00;99109.25;1734720;81;21447;-75
2022/08/13 02:33:48;;;;;;;7.33;5.87;;;;;;;18.57;100.00;99105.30;1720984;81;21140;-75
2022/08/13 02:36:16;;;;;;;6.58;5.80;;;;;;;18.58;100.00;99108.30;1725745;81;21007;-75
2022/08/13 02:38:43;;;;;;;12.10;5.92;;;;;;;18.60;100.00;99101.11;1736757;81;21015;-75
2022/08/13 02:43:55;;;;;;;10.98;6.12;;;;;;;18.58;100.00;99103.03;1705857;81;21539;-75
2022/08/13 02:46:23;;;;;;;8.23;6.45;;;;;;;18.56;100.00;99101.83;1720015;82;21170;-75
2022/08/13 02:48:52;;;;;;;8.13;6.08;;;;;;;18.57;100.00;99107.45;1719838;81;20969;-75
2022/08/13 02:51:23;;;;;;;7.25;5.55;;;;;;;18.59;100.00;99109.97;1720480;82;21748;-75
2022/08/13 02:53:47;;;;;;;7.40;6.05;;;;;;;18.59;100.00;99098.12;1722625;82;21144;-75
2022/08/13 02:56:13;;;;;;;7.08;6.00;;;;;;;18.62;100.00;99097.88;1736243;81;21023;-75
2022/08/13 02:58:41;;;;;;;7.78;6.20;;;;;;;18.62;100.00;99100.52;1721143;82;21126;-75
2022/08/13 03:01:10;;;;;;;8.90;6.42;;;;;;;18.63;100.00;99092.97;1725022;81;21425;-75
2022/08/13 03:03:36;;;;;;;6.55;5.92;;;;;;;18.63;100.00;99088.18;1712129;82;21006;-75
2022/08/13 03:06:04;;;;;;;6.87;5.70;;;;;;;18.63;100.00;99087.70;1695037;84;21576;-75
2022/08/13 03:08:31;;;;;;;7.50;5.87;;;;;;;18.63;100.00;99078.96;1726219;81;20960;-75
2022/08/13 03:10:59;;;;;;;7.12;6.15;;;;;;;18.64;100.00;99084.59;1728085;81;20940;-74
2022/08/13 03:13:29;;;;;;;11.50;6.35;;;;;;;18.65;100.00;99088.42;1710527;81;21023;-75
2022/08/13 03:15:56;;;;;;;7.75;5.80;;;;;;;18.64;100.00;99086.74;1702664;81;21565;-75
2022/08/13 03:18:24;;;;;;;6.45;5.85;;;;;;;18.64;100.00;99090.70;1719127;82;21041;-74
2022/08/13 03:20:51;;;;;;;5.90;5.33;;;;;;;18.63;100.00;99095.60;1691327;82;21006;-75
2022/08/13 03:23:17;;;;;;;6.37;5.53;;;;;;;18.62;100.00;99099.67;1740675;81;21124;-75
2022/08/13 03:25:44;;;;;;;8.78;6.50;;;;;;;18.61;100.00;99108.05;1741869;81;20960;-75
2022/08/13 03:28:11;;;;;;;6.70;5.97;;;;;;;18.62;100.00;99104.94;1722349;81;20959;-75
2022/08/13 03:30:38;;;;;;;7.17;6.45;;;;;;;18.63;100.00;99108.77;1724925;81;20990;-75
2022/08/13 03:33:13;;;;;;;7.42;5.55;;;;;;;18.64;100.00;99112.24;1723136;82;21181;-74
2022/08/13 03:35:40;;;;;;;8.45;5.67;;;;;;;18.63;100.00;99111.41;1743173;81;21151;-74
2022/08/13 03:38:10;;;;;;;7.62;5.90;;;;;;;18.62;100.00;99113.69;1697401;82;21498;-74
2022/08/13 03:43:22;;;;;;;6.83;6.12;;;;;;;18.61;100.00;99120.39;1715496;81;21032;-74
2022/08/13 03:45:49;;;;;;;7.30;6.33;;;;;;;18.60;100.00;99114.28;1739784;81;20976;-74
2022/08/13 03:48:16;;;;;;;8.50;6.47;;;;;;;18.61;100.00;99119.07;1735756;81;21533;-74
2022/08/13 03:50:44;;;;;;;8.95;6.62;;;;;;;18.61;100.00;99125.66;1712132;81;20955;-74
2022/08/13 03:53:11;;;;;;;7.10;6.42;;;;;;;18.63;100.00;99123.73;1705537;82;21591;-74
2022/08/13 03:55:42;;;;;;;8.18;6.67;;;;;;;18.64;100.00;99125.41;1726398;81;21036;-74
2022/08/13 03:58:09;;;;;;;5.92;5.42;;;;;;;18.63;100.00;99128.53;1723465;81;21516;-75
2022/08/13 04:00:43;;;;;;;7.08;5.83;;;;;;;18.64;100.00;99132.00;1737303;81;21039;-74
2022/08/13 04:03:28;;;;;;;10.15;6.53;;;;;;;18.59;100.00;99128.41;1731471;81;21028;-75
2022/08/13 04:05:58;;;;;;;7.58;6.62;;;;;;;18.57;100.00;99129.84;1715024;82;21584;-74
2022/08/13 04:08:37;;;;;;;7.50;6.55;;;;;;;18.57;100.00;99129.84;1722193;81;21022;-74
2022/08/13 04:11:08;;;;;;;8.03;7.05;;;;;;;18.58;100.00;99124.10;1735732;82;21096;-74
2022/08/13 04:13:38;;;;;;;7.00;6.40;;;;;;;18.60;100.00;99124.82;1717552;81;21168;-74
2022/08/13 04:16:10;;;;;;;6.67;5.90;;;;;;;18.62;100.00;99131.28;1728528;81;21008;-74
2022/08/13 04:18:39;;;;;;;7.62;6.40;;;;;;;18.61;100.00;99124.34;1722623;82;20992;-74
2022/08/13 04:21:09;;;;;;;7.75;6.50;;;;;;;18.60;100.00;99116.92;1716266;82;21011;-74
2022/08/13 04:23:39;;;;;;;6.87;6.28;;;;;;;18.58;100.00;99110.93;1731303;82;21061;-74
2022/08/13 04:26:08;;;;;;;10.00;6.72;;;;;;;18.57;100.00;99106.14;1729476;82;21189;-74
2022/08/13 04:28:38;;;;;;;7.05;5.72;;;;;;;18.56;100.00;99110.21;1714393;81;21007;-76
2022/08/13 04:31:05;;;;;;;6.75;5.95;;;;;;;18.53;100.00;99104.70;1742422;81;22208;-73
2022/08/13 04:37:03;;;;;;;10.10;7.08;;;;;;;18.56;100.00;99099.67;1723064;82;21045;-75
2022/08/13 04:39:31;;;;;;;8.63;6.40;;;;;;;18.62;100.00;99104.94;1714458;82;21158;-75
2022/08/13 04:41:59;;;;;;;7.03;6.00;;;;;;;18.67;100.00;99112.84;1730873;81;21447;-74
2022/08/13 04:44:26;;;;;;;7.80;6.40;;;;;;;18.73;100.00;99111.52;1743690;81;21043;-74
2022/08/13 04:46:54;;;;;;;8.95;6.55;;;;;;;18.78;100.00;99100.98;1737321;81;21079;-75
2022/08/13 04:49:20;;;;;;;9.33;6.40;;;;;;;18.84;100.00;99103.57;1740482;81;20966;-74
2022/08/13 04:51:47;;;;;;;8.40;6.83;;;;;;;18.90;100.00;99102.61;1738127;82;22133;-74
2022/08/13 04:54:14;;;;;;;7.75;6.37;;;;;;;18.97;100.00;99107.38;1735492;81;21041;-75
2022/08/13 04:56:40;;;;;;;10.13;6.40;;;;;;;19.03;100.00;99106.38;1735895;82;20976;-75
2022/08/13 04:59:08;;;;;;;7.72;6.65;;;;;;;19.08;100.00;99104.21;1741513;81;21542;-74
2022/08/13 05:01:34;;;;;;;15.10;6.83;;;;;;;19.09;100.00;99103.25;1717570;81;21006;-74
2022/08/13 05:04:01;;;;;;;7.00;6.25;;;;;;;19.14;100.00;99104.20;1718491;81;21070;-74
2022/08/13 05:06:27;;;;;;;6.90;6.00;;;;;;;19.16;100.00;99109.70;1734180;82;21032;-75
2022/08/13 05:08:56;;;;;;;8.53;6.72;;;;;;;19.19;100.00;99100.67;1720658;82;21552;-74
2022/08/13 05:11:23;;;;;;;8.65;6.62;;;;;;;19.22;100.00;99097.79;1720654;81;21053;-73
2022/08/13 05:13:49;;;;;;;7.15;6.35;;;;;;;19.23;100.00;99106.89;1725022;82;21052;-75
2022/08/13 05:16:17;;;;;;;6.78;5.60;;;;;;;19.22;100.00;99106.54;1721987;82;21114;-74
2022/08/13 05:18:53;;;;;;;7.45;6.35;;;;;;;19.21;100.00;99106.66;1734650;81;21007;-75
2022/08/13 05:21:22;;;;;;;7.78;6.08;;;;;;;19.18;100.00;99110.39;1730610;82;20966;-74
2022/08/13 05:23:53;;;;;;;8.20;7.17;;;;;;;19.15;100.00;99121.21;1724824;82;21149;-73
2022/08/13 05:26:24;;;;;;;9.60;6.42;;;;;;;19.13;100.00;99128.41;1733450;82;21055;-73
2022/08/13 05:28:51;;;;;;;6.87;5.97;;;;;;;19.12;100.00;99118.82;1734362;81;21096;-73
2022/08/13 05:31:18;;;;;;;6.97;6.20;;;;;;;19.08;100.00;99121.83;1725583;81;21084;-73
2022/08/13 05:33:45;;;;;;;8.63;6.25;;;;;;;19.04;100.00;99122.55;1736376;82;21539;-73
2022/08/13 05:36:13;;;;;;;9.48;6.62;;;;;;;19.04;100.00;99115.96;1721753;82;20986;-73
2022/08/13 05:38:40;;;;;;;8.70;7.83;;;;;;;19.10;100.00;99119.42;1733582;82;20973;-74
2022/08/13 05:41:10;;;;;;;7.92;6.50;;;;;;;19.18;100.00;99119.61;1714987;82;21788;-74
2022/08/13 05:43:36;;;;;;;8.40;6.65;;;;;;;19.33;100.00;99119.33;1741769;82;20970;-75
2022/08/13 05:46:08;;;;;;;7.40;6.42;;;;;;;19.48;100.00;99121.52;1744924;82;21573;-75
2022/08/13 05:48:40;;;;;;;10.80;6.37;;;;;;;19.66;100.00;99120.48;1738387;81;21004;-74
2022/08/13 05:51:10;;;;;;;9.70;6.58;;;;;;;19.85;100.00;99110.05;1722537;81;21074;-74
2022/08/13 05:53:37;;;;;;;7.53;6.65;;;;;;;20.05;100.00;99110.14;1738418;81;21150;-74
2022/08/13 05:56:06;;;;;;;7.25;5.78;;;;;;;20.23;100.00;99107.23;1726450;81;21058;-74
2022/08/13 05:58:34;;;;;;;9.93;6.75;;;;;;;20.42;100.00;99119.20;1721050;82;21239;-74
2022/08/13 06:03:46;;;;;;;10.70;6.97;;;;;;;20.76;100.00;99109.65;1736376;82;21039;-74
2022/08/13 06:06:15;;;;;;;9.90;7.08;;;;;;;20.94;100.00;99112.80;1738773;81;21114;-74
2022/08/13 06:08:43;;;;;;;7.87;6.95;;;;;;;21.02;100.00;99108.61;1729203;81;20951;-74
2022/08/13 06:11:14;;;;;;;9.15;6.62;;;;;;;21.07;100.00;99106.39;1742997;82;20995;-74
2022/08/13 06:13:41;;;;;;;8.95;7.03;;;;;;;21.17;100.00;99101.47;1735732;81;21024;-74
2022/08/13 06:16:10;;;;;;;8.23;7.42;;;;;;;21.31;100.00;99101.07;1744745;82;20961;-74
2022/08/13 06:18:40;;;;;;;11.30;7.45;;;;;;;21.46;100.00;99095.34;1723819;81;21144;-75
2022/08/13 06:21:07;;;;;;;7.97;7.17;;;;;;;21.58;100.00;99100.32;1733360;82;21064;-75
2022/08/13 06:23:37;;;;;;;8.43;7.50;;;;;;;21.71;100.00;99093.91;1740188;81;21012;-75
2022/08/13 06:26:07;;;;;;;8.28;6.92;;;;;;;21.74;100.00;99094.46;1713193;82;21257;-75
2022/08/13 06:28:34;;;;;;;8.80;6.72;;;;;;;21.73;100.00;99092.79;1709233;81;21764;-73
2022/08/13 06:31:04;;;;;;;8.10;7.03;;;;;;;21.73;100.00;99097.25;1729292;81;21156;-74
2022/08/13 06:33:35;;;;;;;10.43;7.60;;;;;;;21.75;100.00;99094.81;1738572;81;21028;-74
2022/08/13 06:36:12;;;;;;;9.25;7.85;;;;;;;21.76;100.00;99090.34;1731045;81;21034;-73
2022/08/13 06:38:50;;;;;;;10.20;8.15;;;;;;;21.79;100.00;99089.55;1725427;81;20956;-74
2022/08/13 06:41:19;;;;;;;8.58;7.40;;;;;;;21.88;100.00;99095.80;1735962;82;21035;-74
2022/08/13 06:43:49;;;;;;;8.73;7.80;;;;;;;21.95;100.00;99092.94;1723492;81;21758;-74
2022/08/13 06:46:22;;;;;;;10.13;7.78;;;;;;;22.06;100.00;99092.77;1729983;81;21154;-74
2022/08/13 06:48:49;;;;;;;9.40;7.47;;;;;;;22.10;99.89;99095.48;1718241;81;21004;-74
2022/08/13 06:51:16;;;;;;;9.05;8.03;;;;;;;22.12;99.83;99098.82;1722883;81;21059;-74
2022/08/13 06:53:44;;;;;;;9.98;8.00;;;;;;;22.14;99.07;99095.55;1732600;82;21114;-74
2022/08/13 06:56:19;;;;;;;9.58;8.48;;;;;;;22.16;98.56;99097.56;1712286;81;21178;-75
2022/08/13 06:58:49;;;;;;;8.83;7.92;;;;;;;22.22;97.83;99094.30;1733251;81;21163;-75
2022/08/13 07:01:20;;;;;;;9.55;8.55;;;;;;;22.26;98.95;99091.70;1733190;81;21000;-74
2022/08/13 07:03:46;;;;;;;8.30;7.50;;;;;;;22.34;98.33;99083.88;1715199;81;20969;-74
2022/08/13 07:06:17;;;;;;;9.23;8.33;;;;;;;22.46;98.84;99086.31;1735668;82;21110;-74
2022/08/13 07:08:44;;;;;;;11.20;8.95;;;;;;;22.59;97.89;99095.56;1737454;82;21143;-74
2022/08/13 07:11:23;;;;;;;9.55;8.30;;;;;;;22.71;96.26;99090.07;1721117;81;21512;-74
2022/08/13 07:13:52;;;;;;;10.65;8.73;;;;;;;22.79;95.45;99092.82;1722482;81;21062;-74
2022/08/13 07:16:22;;;;;;;9.83;8.85;;;;;;;22.84;94.42;99087.42;1740878;81;21157;-74
2022/08/13 07:18:50;;;;;;;11.08;9.05;;;;;;;22.91;93.80;99081.86;1713472;82;21044;-74
2022/08/13 07:21:22;;;;;;;9.95;9.05;;;;;;;22.99;93.93;99082.41;1729722;81;21138;-74
2022/08/13 07:23:49;;;;;;;12.03;9.48;;;;;;;23.06;92.67;99082.16;1721131;81;20968;-74
2022/08/13 07:26:18;;;;;;;10.05;9.05;;;;;;;23.09;91.54;99078.37;1699163;82;21148;-75
2022/08/13 07:28:49;;;;;;;10.20;9.20;;;;;;;23.09;90.79;99080.53;1720491;81;21092;-74
2022/08/13 07:31:19;;;;;;;10.55;9.55;;;;;;;23.01;91.44;99075.97;1721567;82;21624;-74
2022/08/13 07:33:55;;;;;;;9.73;8.83;;;;;;;22.94;92.38;99089.52;1717430;81;21147;-75
2022/08/13 07:36:19;;;;;;;;;;;;;;;22.83;91.56;99072.98;1712726;81;20973;-75
2022/08/13 07:38:47;;;;;;;14.75;9.45;;;;;;;22.71;92.18;99084.28;1733757;81;20415;-76
2022/08/13 07:41:14;;;;;;;9.20;8.25;;;;;;;22.68;93.32;99076.62;1727156;81;21588;-75
2022/08/13 07:43:45;;;;;;;9.05;8.15;;;;;;;22.74;94.06;99090.61;1718526;81;20985;-74
2022/08/13 07:46:15;;;;;;;9.28;8.48;;;;;;;22.78;92.50;99091.98;1724877;81;21149;-75
2022/08/13 07:48:49;;;;;;;9.68;8.68;;;;;;;22.81;91.80;99091.69;1744046;82;20948;-74
2022/08/13 07:51:21;;;;;;;9.38;8.48;;;;;;;22.85;91.97;99087.77;1736497;81;21039;-74
2022/08/13 07:53:54;;;;;;;10.32;8.63;;;;;;;22.92;93.56;99094.14;1709587;81;20975;-74
2022/08/13 07:56:32;;;;;;;10.95;8.88;;;;;;;23.08;91.99;99095.27;1713100;82;21209;-74
2022/08/13 07:59:00;;;;;;;9.45;8.13;;;;;;;23.15;90.36;99092.36;1734514;81;21949;-76
2022/08/13 08:01:29;;;;;;;9.85;8.85;;;;;;;23.14;89.64;99090.69;1734357;81;20988;-74
2022/08/13 08:04:01;;;;;;;8.95;8.05;;;;;;;23.14;90.72;99085.39;1734737;81;21055;-74
2022/08/13 08:06:29;;;;;;;9.03;7.92;;;;;;;23.18;90.01;99080.13;1725456;82;20975;-74
2022/08/13 08:08:57;;;;;;;10.50;8.90;;;;;;;23.16;88.97;99090.05;1724535;81;21045;-74
2022/08/13 08:14:09;;;;;;;10.80;8.90;;;;;;;23.01;89.82;99090.56;1718819;82;21005;-75
2022/08/13 08:16:36;;;;;;;10.82;9.20;;;;;;;22.90;90.28;99097.92;1719803;82;21000;-75
2022/08/13 08:19:03;;;;;;;11.75;8.70;;;;;;;22.86;90.40;99093.89;1733802;81;21014;-75
2022/08/13 08:21:30;;;;;;;11.10;8.63;;;;;;;22.87;90.83;99088.94;1724803;81;21677;-74
2022/08/13 08:23:59;;;;;;;11.38;10.28;;;;;;;22.91;91.26;99087.66;1743624;81;21610;-75
2022/08/13 08:26:32;;;;;;;9.38;8.48;;;;;;;22.95;91.27;99084.56;1749230;82;21506;-75
2022/08/13 08:29:00;;;;;;;10.50;9.45;;;;;;;22.98;90.23;99088.73;1721140;81;26227;-75
2022/08/13 08:31:27;;;;;;;12.63;9.38;;;;;;;22.94;90.07;99092.17;1739050;81;21017;-75
2022/08/13 08:33:56;;;;;;;12.53;9.23;;;;;;;22.91;90.55;99087.66;1747075;81;20971;-75
2022/08/13 08:36:26;;;;;;;10.20;9.20;;;;;;;22.87;91.31;99089.77;1722135;81;21862;-75
2022/08/13 08:44:32;;;;;;;9.60;8.78;;;;;;;23.03;92.32;99091.25;1722793;81;21519;-75
2022/08/13 08:46:56;;;;;;;9.20;8.30;;;;;;;23.06;90.80;99090.11;1715316;81;21004;-75
2022/08/13 08:49:24;;;;;;;10.75;8.88;;;;;;;23.02;90.37;99079.46;1732846;81;21233;-75
2022/08/13 08:51:51;;;;;;;13.03;9.35;;;;;;;22.99;91.29;99079.76;1719386;81;21033;-75
2022/08/13 08:54:20;;;;;;;13.05;8.60;;;;;;;23.03;91.37;99079.80;1722594;81;21530;-76
2022/08/13 08:56:47;;;;;;;11.10;9.23;;;;;;;23.11;91.33;99076.41;1726530;82;21151;-75
2022/08/13 08:59:15;;;;;;;10.18;8.60;;;;;;;23.23;91.79;99061.41;1719198;82;21493;-75
2022/08/13 09:01:47;;;;;;;10.28;9.28;;;;;;;23.41;91.05;99063.19;1738657;81;21855;-75
2022/08/13 09:04:12;;;;;;;10.55;9.18;;;;;;;23.63;90.18;99058.73;1722648;82;20933;-75
2022/08/13 09:06:40;;;;;;;11.40;9.15;;;;;;;23.85;88.74;99059.53;1746927;81;21407;-76
2022/08/13 09:09:06;;;;;;;11.12;9.03;;;;;;;24.05;87.24;99059.64;1730184;81;20997;-75
2022/08/13 09:11:35;;;;;;;14.98;9.10;;;;;;;24.26;85.84;99053.11;1721345;82;21064;-75
2022/08/13 09:14:07;;;;;;;11.22;9.03;;;;;;;24.48;86.00;99054.34;1735510;82;21868;-75
2022/08/13 09:16:32;;;;;;;11.33;9.53;;;;;;;24.72;85.14;99063.22;1747746;81;20953;-75
2022/08/13 09:18:59;;;;;;;10.58;8.85;;;;;;;24.93;82.39;99054.77;1748990;81;20999;-75
2022/08/13 09:21:25;;;;;;;9.63;8.63;;;;;;;25.07;82.19;99054.64;1726951;81;21057;-75
2022/08/13 09:23:52;;;;;;;16.00;9.75;;;;;;;25.19;81.57;99057.79;1722117;82;21126;-76
2022/08/13 09:26:20;;;;;;;13.18;9.55;;;;;;;25.17;81.02;99061.98;1746846;81;21130;-76
2022/08/13 09:28:46;;;;;;;10.68;9.58;;;;;;;;;;1734080;81;21011;-76
2022/08/13 09:31:13;;;;;;;10.98;8.73;;;;;;;25.09;81.60;99061.96;1732650;81;21063;-75
2022/08/13 09:33:40;;;;;;;12.78;9.75;;;;;;;25.02;81.67;99066.27;1743916;81;21492;-74
2022/08/13 09:36:09;;;;;;;9.93;8.58;;;;;;;24.85;82.57;99061.41;1731673;81;21106;-74
2022/08/13 09:38:36;;;;;;;12.95;8.80;;;;;;;24.65;83.09;99068.84;1720999;81;21154;-76
2022/08/13 09:41:28;;;;;;;14.70;9.28;;;;;;;24.47;84.12;99065.48;1729959;81;20964;-76
2022/08/13 09:43:57;;;;;;;10.03;9.03;;;;;;;24.38;85.23;99059.29;1699344;83;21010;-75
2022/08/13 09:46:23;;;;;;;11.97;9.15;;;;;;;24.43;85.84;99054.83;1722176;82;21055;-76
2022/08/13 09:48:51;;;;;;;10.00;8.98;;;;;;;24.52;86.35;99045.89;1726750;82;20976;-75
2022/08/13 09:51:19;;;;;;;11.75;8.70;;;;;;;24.62;86.62;99056.37;1736698;81;21113;-75
2022/08/13 09:53:46;;;;;;;12.63;9.78;;;;;;;24.63;85.93;99054.88;1734745;82;21051;-75
2022/08/13 09:56:17;;;;;;;11.12;9.15;;;;;;;24.59;86.29;99048.72;1715109;81;21003;-75
2022/08/13 09:58:42;;;;;;;15.35;9.30;;;;;;;24.53;86.65;99047.56;1738609;81;21487;-75
2022/08/13 10:01:09;;;;;;;10.05;9.10;;;;;;;24.48;87.08;99051.20;1741095;82;20981;-75
2022/08/13 10:03:41;;;;;;;9.93;8.75;;;;;;;24.43;87.61;99051.34;1726344;81;21143;-73
2022/08/13 10:06:06;;;;;;;10.65;9.55;;;;;;;24.44;87.93;99047.69;1736144;82;21522;-75
2022/08/13 10:08:34;;;;;;;15.65;9.20;;;;;;;24.52;87.86;99047.22;1729811;81;21544;-75
2022/08/13 10:11:01;;;;;;;11.22;9.78;;;;;;;24.68;88.27;99043.76;1720833;81;21424;-74
2022/08/13 10:13:28;;;;;;;13.45;10.00;;;;;;;24.95;88.30;99037.35;1748187;82;20961;-75
2022/08/13 10:15:55;;;;;;;11.22;9.48;;;;;;;25.24;87.04;99036.34;1736718;81;21107;-75
2022/08/13 10:18:26;;;;;;;10.13;8.95;;;;;;;25.43;83.77;99039.64;1717259;82;21005;-75
2022/08/13 10:20:52;;;;;;;10.05;8.50;;;;;;;25.41;82.96;99036.65;1744927;82;20960;-74
2022/08/13 10:23:18;;;;;;;11.53;9.13;;;;;;;25.37;83.10;99029.19;1718712;81;21579;-74
2022/08/13 10:25:46;;;;;;;20.95;9.85;;;;;;;25.38;84.09;99034.31;1720117;81;21019;-74
2022/08/13 10:28:19;;;;;;;20.02;9.68;;;;;;;25.44;85.20;99030.66;1745009;81;21721;-75
2022/08/13 10:30:46;;;;;;;11.93;9.30;;;;;;;25.54;85.45;99033.48;1715711;82;21538;-74
2022/08/13 10:33:15;;;;;;;10.50;8.78;;;;;;;25.58;83.54;99032.13;1721428;82;21048;-74
2022/08/13 10:35:44;;;;;;;12.63;8.93;;;;;;;25.47;84.15;99029.83;1741240;81;20999;-74
2022/08/13 10:38:16;;;;;;;11.03;9.53;;;;;;;25.47;84.42;99017.02;1728142;81;20995;-74
2022/08/13 10:40:43;;;;;;;11.15;9.53;;;;;;;25.54;85.16;99018.84;1734598;81;21558;-75
2022/08/13 10:43:10;;;;;;;10.65;9.20;;;;;;;25.73;85.31;99019.83;1721004;82;21087;-74
2022/08/13 10:45:42;;;;;;;19.37;9.03;;;;;;;25.91;83.88;99021.43;1739697;81;21055;-75
2022/08/13 10:48:14;;;;;;;9.93;8.98;;;;;;;26.06;83.54;99018.36;1730549;82;20991;-74
2022/08/13 10:50:41;;;;;;;11.75;9.73;;;;;;;26.20;83.40;99020.29;1721330;82;20956;-75
2022/08/13 10:53:07;;;;;;;13.20;9.53;;;;;;;26.32;82.64;99024.28;1729239;81;21137;-75
2022/08/13 10:55:35;;;;;;;10.48;9.28;;;;;;;26.34;80.88;99022.77;1732695;81;21016;-75
2022/08/13 10:58:13;;;;;;;11.22;9.38;;;;;;;26.39;80.86;99024.39;1717425;81;21552;-75
2022/08/13 11:00:32;;;;;;;11.85;8.95;;;;;;;26.45;80.12;99019.70;1731740;81;21003;-75
2022/08/13 11:02:58;;;;;;;15.28;9.68;;;;;;;26.46;79.66;99019.19;1733976;82;21570;-75
2022/08/13 11:05:27;;;;;;;10.20;9.15;;;;;;;26.45;79.57;99013.53;1742769;82;21104;-75
2022/08/13 11:07:53;;;;;;;10.68;9.63;;;;;;;26.45;80.05;99016.20;1727321;81;21039;-74
2022/08/13 11:10:21;;;;;;;11.15;9.30;;;;;;;26.47;80.08;99019.02;1734128;82;21020;-75
2022/08/13 11:12:51;;;;;;;10.55;9.25;;;;;;;26.48;79.59;99014.52;1734338;82;20988;-75
2022/08/13 11:15:22;;;;;;;9.68;8.35;;;;;;;26.43;80.17;99013.20;1737222;81;21547;-75
2022/08/13 11:17:52;;;;;;;10.58;8.95;;;;;;;26.46;80.84;99012.02;1735116;82;21784;-75
2022/08/13 11:20:19;;;;;;;10.65;9.43;;;;;;;26.46;79.70;99008.02;1731118;81;20945;-75
2022/08/13 11:22:49;;;;;;;13.75;8.70;;;;;;;26.49;79.89;99002.84;1717077;82;21049;-74
2022/08/13 11:25:15;;;;;;;10.30;9.13;;;;;;;26.54;79.62;99009.32;1728645;81;20972;-74
2022/08/13 11:27:42;;;;;;;10.20;8.78;;;;;;;26.58;79.08;99003.13;1724959;81;20948;-74
2022/08/13 11:30:10;;;;;;;10.70;8.80;;;;;;;26.58;78.82;99006.60;1720673;82;21109;-74
2022/08/13 11:32:37;;;;;;;10.10;8.85;;;;;;;26.54;79.61;99003.16;1733525;82;21008;-75
2022/08/13 11:35:05;;;;;;;9.15;8.35;;;;;;;26.46;78.95;99000.02;1726737;81;21066;-74
2022/08/13 11:37:32;;;;;;;9.73;8.80;;;;;;;26.38;80.34;98995.56;1719373;82;20965;-74
2022/08/13 11:39:58;;;;;;;9.33;8.38;;;;;;;26.38;80.49;98997.39;1737874;82;20943;-75
2022/08/13 11:42:25;;;;;;;9.95;9.05;;;;;;;26.38;80.90;98998.22;1722365;81;21238;-75
2022/08/13 11:44:51;;;;;;;9.40;8.60;;;;;;;26.38;80.52;98990.73;1732300;82;20945;-74
2022/08/13 11:47:18;;;;;;;13.58;9.58;;;;;;;26.37;80.24;98993.09;1740185;81;21000;-74
2022/08/13 11:49:44;;;;;;;10.58;8.63;;;;;;;26.39;80.24;98985.22;1738466;81;20966;-74
2022/08/13 12:18:43;;;;;;;12.58;8.50;;;;;;;27.52;74.56;98963.13;1840513;77;26846;-75
2022/08/13 12:21:10;;;;;;;13.60;9.25;;;;;;;27.49;74.02;98976.33;1738633;81;21268;-75
2022/08/13 12:23:36;;;;;;;12.28;8.80;;;;;;;27.42;74.45;98972.72;1738846;81;21774;-75
2022/08/13 12:26:03;;;;;;;9.50;8.60;;;;;;;27.32;74.60;98968.17;1738242;82;21141;-75
2022/08/13 12:28:29;;;;;;;14.73;9.18;;;;;;;27.20;75.01;98971.78;1736922;82;21011;-75